タヒチ島 の空港の天気 - METARとTAF

タヒチ・ファアア国際空港 ( NTAA / PPT ) - フランス領ポリネシア タヒチ島
飛行場実況気象(Metar)
観測時間01/22 19:00 TAHT (01/23 05:00 UTC)
風向・風速北東 3m/s
視程10km以上
天気現象
少しの雲 雲底高度 700m
全天の4割程度の雲 雲底高度 3960m
気温29℃
湿度66%
気圧1010hPa
METARNTAA 230500Z 04005KT 340V090 9999 FEW023 SCT130 29/22 Q1010 NOSIG
過去の天気等 Google飛行場航空写真 Wunderground天気予報

過去48時間のMETAR

飛行場予報(TAF)
発表時間: 1/22 19:00 TAHT (1/23 05:00 UTC)
予報対象時間: 22日20時 TAHT ~ 24日2時 TAHT
風向・風速不定 3m/s
視程10km以上
少しの雲 雲底高度 700m
全天の4割程度の雲 雲底高度 1,830m
TAF NTAA 230500Z 2306/2412 VRB05KT 9999 FEW023 SCT060